createdAt,value
2022-08-27T00:00:38.518Z,89.78
2022-08-27T00:01:38.531Z,90.28
2022-08-27T00:02:38.489Z,90.28
2022-08-27T00:03:38.480Z,90.17
2022-08-27T00:04:38.546Z,89.98
2022-08-27T00:05:38.453Z,89.58
2022-08-27T00:06:38.440Z,89.17
2022-08-27T00:07:38.425Z,88.93
2022-08-27T00:08:38.413Z,88.93
2022-08-27T00:09:38.394Z,89.33
2022-08-27T00:10:38.386Z,89.13
2022-08-27T00:11:38.371Z,89.53
2022-08-27T00:12:38.359Z,90.73
2022-08-27T00:13:38.344Z,89.03
2022-08-27T00:14:38.330Z,88.68
2022-08-27T00:15:38.318Z,88.63
2022-08-27T00:16:38.374Z,88.73
2022-08-27T00:17:38.290Z,88.32
2022-08-27T00:18:38.279Z,88.43
2022-08-27T00:19:38.263Z,88.32
2022-08-27T00:20:38.253Z,88.23
2022-08-27T00:21:38.232Z,88.12
2022-08-27T00:22:38.231Z,88.32
2022-08-27T00:23:38.207Z,88.32
2022-08-27T00:24:38.399Z,88.43
2022-08-27T00:25:39.206Z,88.09
2022-08-27T00:26:42.632Z,88.09
2022-08-27T00:27:38.153Z,88.43
2022-08-27T00:28:38.142Z,88.48
2022-08-27T00:29:38.133Z,88.18
2022-08-27T00:30:38.114Z,88.02
2022-08-27T00:31:38.150Z,88.32
2022-08-27T00:32:38.091Z,88.23
2022-08-27T00:33:38.073Z,88.43
2022-08-27T00:34:38.063Z,88.63
2022-08-27T00:35:38.049Z,88.39
2022-08-27T00:36:38.254Z,87.78
2022-08-27T00:37:38.025Z,87.88
2022-08-27T00:38:38.010Z,88.23
2022-08-27T00:39:37.991Z,88.32
2022-08-27T00:40:38.058Z,88.63
2022-08-27T00:41:37.967Z,88.63
2022-08-27T00:42:37.952Z,88.83
2022-08-27T00:43:37.945Z,88.93
2022-08-27T00:44:37.930Z,88.93
2022-08-27T00:45:37.976Z,89.03
2022-08-27T00:46:37.903Z,88.73
2022-08-27T00:47:37.885Z,88.73
2022-08-27T00:48:37.880Z,88.73
2022-08-27T00:49:37.862Z,88.73
2022-08-27T00:50:37.852Z,88.63
2022-08-27T00:51:37.837Z,90.69
2022-08-27T00:52:37.820Z,89.43
2022-08-27T00:53:37.811Z,89.23
2022-08-27T00:54:37.795Z,89.23
2022-08-27T00:55:37.783Z,89.07
2022-08-27T00:56:37.768Z,88.93
2022-08-27T00:57:37.748Z,89.03
2022-08-27T00:58:37.737Z,89.23
2022-08-27T00:59:37.721Z,89.13
2022-08-27T01:00:37.763Z,89.47
2022-08-27T01:01:37.695Z,89.13
2022-08-27T01:02:37.692Z,89.07
2022-08-27T01:03:37.672Z,88.83
2022-08-27T01:04:37.668Z,88.93
2022-08-27T01:05:37.642Z,89.23
2022-08-27T01:06:37.639Z,89.17
2022-08-27T01:07:37.618Z,89.07
2022-08-27T01:08:37.607Z,89.27
2022-08-27T01:09:37.590Z,89.78
2022-08-27T01:10:37.586Z,89.98
2022-08-27T01:11:37.563Z,90.08
2022-08-27T01:12:37.742Z,90.17
2022-08-27T01:13:42.136Z,90.02
2022-08-27T01:14:38.553Z,90.28
2022-08-27T01:15:37.510Z,91.63
2022-08-27T01:16:37.584Z,91.18
2022-08-27T01:17:37.483Z,91.83
2022-08-27T01:18:37.471Z,90.68
2022-08-27T01:19:37.462Z,89.98
2022-08-27T01:20:37.449Z,90.17
2022-08-27T01:21:37.436Z,90.12
2022-08-27T01:22:37.421Z,90.12
2022-08-27T01:23:37.406Z,90.12
2022-08-27T01:24:37.395Z,90.22
2022-08-27T01:25:37.377Z,90.42
2022-08-27T01:26:37.365Z,90.52
2022-08-27T01:27:37.347Z,90.56
2022-08-27T01:28:37.792Z,91.13
2022-08-27T01:29:37.320Z,90.82
2022-08-27T01:30:37.311Z,91.02
2022-08-27T01:31:37.323Z,90.92
2022-08-27T01:32:37.286Z,90.92
2022-08-27T01:33:37.270Z,91.32
2022-08-27T01:34:37.256Z,91.63
2022-08-27T01:35:38.933Z,91.57
2022-08-27T01:36:37.234Z,91.52
2022-08-27T01:37:37.213Z,91.57
2022-08-27T01:38:37.210Z,91.47
2022-08-27T01:39:37.189Z,91.32
2022-08-27T01:40:37.248Z,91.22
2022-08-27T01:41:37.157Z,90.92
2022-08-27T01:42:37.153Z,90.72
2022-08-27T01:43:37.137Z,90.82
2022-08-27T01:44:37.126Z,90.82
2022-08-27T01:45:37.115Z,90.92
2022-08-27T01:46:37.167Z,90.82
2022-08-27T01:47:37.081Z,90.77
2022-08-27T01:48:37.071Z,91.42
2022-08-27T01:49:37.054Z,91.52
2022-08-27T01:50:37.040Z,91.32
2022-08-27T01:51:37.028Z,91.02
2022-08-27T01:52:37.017Z,91.13
2022-08-27T01:53:36.996Z,91.32
2022-08-27T01:54:36.997Z,91.32
2022-08-27T01:55:36.973Z,91.57
2022-08-27T01:56:36.957Z,91.67
2022-08-27T01:57:36.946Z,91.87
2022-08-27T01:58:36.932Z,92.47
2022-08-27T01:59:39.786Z,92.37
2022-08-27T02:00:36.968Z,92.27
2022-08-27T02:01:36.961Z,92.68
2022-08-27T02:02:36.885Z,92.68
2022-08-27T02:03:36.861Z,92.47
2022-08-27T02:04:36.861Z,92.37
2022-08-27T02:05:39.333Z,92.47
2022-08-27T02:06:37.850Z,92.77
2022-08-27T02:07:36.806Z,93.18
2022-08-27T02:08:36.799Z,92.68
2022-08-27T02:09:36.779Z,92.88
2022-08-27T02:10:36.777Z,93.28
2022-08-27T02:11:44.849Z,93.22
2022-08-27T02:12:37.774Z,93.18
2022-08-27T02:13:36.731Z,93.08
2022-08-27T02:14:36.720Z,92.82
2022-08-27T02:15:36.702Z,92.68
2022-08-27T02:16:36.737Z,92.77
2022-08-27T02:17:36.678Z,92.77
2022-08-27T02:18:36.656Z,92.68
2022-08-27T02:19:36.657Z,92.82
2022-08-27T02:20:36.642Z,93.22
2022-08-27T02:21:36.626Z,93.12
2022-08-27T02:22:36.607Z,93.22
2022-08-27T02:23:36.592Z,93.22
2022-08-27T02:24:36.581Z,93.52
2022-08-27T02:25:36.570Z,93.62
2022-08-27T02:26:36.550Z,93.82
2022-08-27T02:27:36.542Z,93.82
2022-08-27T02:28:36.525Z,93.93
2022-08-27T02:29:36.514Z,94.13
2022-08-27T02:30:36.501Z,94.73
2022-08-27T02:31:36.540Z,94.73
2022-08-27T02:32:36.475Z,94.87
2022-08-27T02:33:36.463Z,93.93
2022-08-27T02:34:36.451Z,94.02
2022-08-27T02:35:36.439Z,94.47
2022-08-27T02:36:36.420Z,94.67
2022-08-27T02:37:36.419Z,94.87
2022-08-27T02:38:36.392Z,94.98
2022-08-27T02:39:36.381Z,95.38
2022-08-27T02:40:36.393Z,95.58
2022-08-27T02:41:36.356Z,95.62
2022-08-27T02:42:36.333Z,95.38
2022-08-27T02:43:36.324Z,95.68
2022-08-27T02:44:36.304Z,95.88
2022-08-27T02:45:36.298Z,96.08
2022-08-27T02:46:36.403Z,96.59
2022-08-27T02:47:36.274Z,96.69
2022-08-27T02:48:36.258Z,96.69
2022-08-27T02:49:36.245Z,96.83
2022-08-27T02:50:36.235Z,96.28
2022-08-27T02:51:36.214Z,96.28
2022-08-27T02:52:36.206Z,95.88
2022-08-27T02:53:36.189Z,95.48
2022-08-27T02:54:36.171Z,95.48
2022-08-27T02:55:36.164Z,95.48
2022-08-27T02:56:36.147Z,95.58
2022-08-27T02:57:36.393Z,95.58
2022-08-27T02:58:36.120Z,95.98
2022-08-27T02:59:36.112Z,96.19
2022-08-27T03:00:36.097Z,96.19
2022-08-27T03:01:36.122Z,95.98
2022-08-27T03:02:36.195Z,96.08
2022-08-27T03:03:36.055Z,95.88
2022-08-27T03:04:36.037Z,95.68
2022-08-27T03:05:36.032Z,95.68
2022-08-27T03:06:36.009Z,95.98
2022-08-27T03:07:36.007Z,96.59
2022-08-27T03:08:52.030Z,96.28
2022-08-27T03:09:36.996Z,96.19
2022-08-27T03:10:35.955Z,96.39
2022-08-27T03:11:35.947Z,96.89
2022-08-27T03:12:35.933Z,97.29
2022-08-27T03:13:35.930Z,97.39
2022-08-27T03:14:35.907Z,97.49
2022-08-27T03:15:35.897Z,96.48
2022-08-27T03:16:35.880Z,96.48
2022-08-27T03:17:35.870Z,95.73
2022-08-27T03:18:35.853Z,95.43
2022-08-27T03:19:35.836Z,95.23
2022-08-27T03:20:35.820Z,95.48
2022-08-27T03:21:35.812Z,95.28
2022-08-27T03:22:35.798Z,95.33
2022-08-27T03:23:35.785Z,95.48
2022-08-27T03:24:35.770Z,95.64
2022-08-27T03:25:35.760Z,96.04
2022-08-27T03:26:35.742Z,97.34
2022-08-27T03:27:35.730Z,97.14
2022-08-27T03:28:35.714Z,97.75
2022-08-27T03:29:35.704Z,97.44
2022-08-27T03:30:35.688Z,96.94
2022-08-27T03:31:35.686Z,96.14
2022-08-27T03:32:35.661Z,95.73
2022-08-27T03:33:35.646Z,95.64
2022-08-27T03:34:35.635Z,95.64
2022-08-27T03:35:35.630Z,95.94
2022-08-27T03:36:35.609Z,96.04
2022-08-27T03:37:35.601Z,95.84
2022-08-27T03:38:35.585Z,95.84
2022-08-27T03:39:35.574Z,95.64
2022-08-27T03:40:35.592Z,95.94
2022-08-27T03:41:45.537Z,96.04
2022-08-27T03:42:36.558Z,95.89
2022-08-27T03:43:35.519Z,95.99
2022-08-27T03:44:35.498Z,96.44
2022-08-27T03:46:01.046Z,95.79
2022-08-27T03:46:36.644Z,95.49
2022-08-27T03:47:35.459Z,95.18
2022-08-27T03:48:35.442Z,95.29
2022-08-27T03:49:35.433Z,95.79
2022-08-27T03:50:35.414Z,95.69
2022-08-27T03:51:35.409Z,95.84
2022-08-27T03:52:35.396Z,96.09
2022-08-27T03:53:35.384Z,95.89
2022-08-27T03:54:35.368Z,95.69
2022-08-27T03:55:35.355Z,95.99
2022-08-27T03:56:35.348Z,95.69
2022-08-27T03:57:35.328Z,95.89
2022-08-27T03:58:35.320Z,95.69
2022-08-27T03:59:35.295Z,95.89
2022-08-27T04:00:35.289Z,95.99
2022-08-27T04:01:35.329Z,96.39
2022-08-27T04:02:35.302Z,96.74
2022-08-27T04:03:35.242Z,96.50
2022-08-27T04:04:35.233Z,96.89
2022-08-27T04:05:35.213Z,96.50
2022-08-27T04:06:35.205Z,96.69
2022-08-27T04:07:35.190Z,96.89
2022-08-27T04:08:35.180Z,96.80
2022-08-27T04:09:35.164Z,97.00
2022-08-27T04:10:35.183Z,96.89
2022-08-27T04:11:35.139Z,96.89
2022-08-27T04:12:35.130Z,96.69
2022-08-27T04:13:35.116Z,96.69
2022-08-27T04:14:35.105Z,96.59
2022-08-27T04:15:35.083Z,96.59
2022-08-27T04:16:35.091Z,96.65
2022-08-27T04:17:35.052Z,96.59
2022-08-27T04:18:35.044Z,96.69
2022-08-27T04:19:35.024Z,96.50
2022-08-27T04:20:36.126Z,96.50
2022-08-27T04:21:35.002Z,96.59
2022-08-27T04:22:34.991Z,96.50
2022-08-27T04:23:34.976Z,96.80
2022-08-27T04:24:34.965Z,96.45
2022-08-27T04:25:34.953Z,96.35
2022-08-27T04:26:34.948Z,96.39
2022-08-27T04:27:34.919Z,96.15
2022-08-27T04:28:38.425Z,96.15
2022-08-27T04:29:34.890Z,96.35
2022-08-27T04:30:34.888Z,96.15
2022-08-27T04:31:34.901Z,95.95
2022-08-27T04:32:34.860Z,96.25
2022-08-27T04:33:34.846Z,95.75
2022-08-27T04:34:34.831Z,94.34
2022-08-27T04:35:34.815Z,94.64
2022-08-27T04:36:34.807Z,94.64
2022-08-27T04:37:34.794Z,94.84
2022-08-27T04:38:34.782Z,94.29
2022-08-27T04:39:34.760Z,94.74
2022-08-27T04:40:34.781Z,94.84
2022-08-27T04:41:34.735Z,95.44
2022-08-27T04:42:34.723Z,95.24
2022-08-27T04:43:34.708Z,95.20
2022-08-27T04:44:34.693Z,95.64
2022-08-27T04:45:34.675Z,95.64
2022-08-27T04:46:34.730Z,95.24
2022-08-27T04:47:34.658Z,95.20
2022-08-27T04:48:34.647Z,94.94
2022-08-27T04:49:34.626Z,94.90
2022-08-27T04:50:34.619Z,94.74
2022-08-27T04:51:34.601Z,95.10
2022-08-27T04:52:34.591Z,95.40
2022-08-27T04:53:35.596Z,95.84
2022-08-27T04:54:34.568Z,95.64
2022-08-27T04:55:34.542Z,95.20
2022-08-27T04:56:34.530Z,94.70
2022-08-27T04:57:34.515Z,95.10
2022-08-27T04:58:34.504Z,94.79
2022-08-27T04:59:34.496Z,95.30
2022-08-27T05:00:34.483Z,95.14
2022-08-27T05:01:34.509Z,94.64
2022-08-27T05:02:34.455Z,94.64
2022-08-27T05:03:34.437Z,94.84
2022-08-27T05:04:34.427Z,94.90
2022-08-27T05:05:34.493Z,95.24
2022-08-27T05:06:34.399Z,94.94
2022-08-27T05:07:34.383Z,95.20
2022-08-27T05:08:34.381Z,95.10
2022-08-27T05:09:34.359Z,95.00
2022-08-27T05:10:34.347Z,95.04
2022-08-27T05:11:34.339Z,94.34
2022-08-27T05:12:34.319Z,94.29
2022-08-27T05:13:34.329Z,94.20
2022-08-27T05:14:34.300Z,94.29
2022-08-27T05:15:34.342Z,93.99
2022-08-27T05:16:34.272Z,94.09
2022-08-27T05:17:34.250Z,94.39
2022-08-27T05:18:42.274Z,94.20
2022-08-27T05:19:35.248Z,94.09
2022-08-27T05:20:34.208Z,93.99
2022-08-27T05:21:34.193Z,94.09
2022-08-27T05:22:34.189Z,93.59
2022-08-27T05:23:34.172Z,93.59
2022-08-27T05:24:34.154Z,92.94
2022-08-27T05:25:34.138Z,93.29
2022-08-27T05:26:34.131Z,93.09
2022-08-27T05:27:34.116Z,92.74
2022-08-27T05:28:34.109Z,92.79
2022-08-27T05:29:34.093Z,92.79
2022-08-27T05:30:34.083Z,92.65
2022-08-27T05:31:34.145Z,92.58
2022-08-27T05:32:34.048Z,92.89
2022-08-27T05:33:34.035Z,92.24
2022-08-27T05:34:34.021Z,91.44
2022-08-27T05:35:34.011Z,91.24
2022-08-27T05:36:33.995Z,91.34
2022-08-27T05:37:33.983Z,91.60
2022-08-27T05:38:33.974Z,90.99
2022-08-27T05:39:33.954Z,90.19
2022-08-27T05:40:34.070Z,90.44
2022-08-27T05:41:34.521Z,90.84
2022-08-27T05:42:33.916Z,90.84
2022-08-27T05:43:33.904Z,90.09
2022-08-27T05:44:42.047Z,89.99
2022-08-27T05:45:34.897Z,89.89
2022-08-27T05:46:33.966Z,89.89
2022-08-27T05:47:33.842Z,89.49
2022-08-27T05:48:33.832Z,89.89
2022-08-27T05:49:33.815Z,89.49
2022-08-27T05:50:33.803Z,89.69
2022-08-27T05:51:33.792Z,88.93
2022-08-27T05:52:33.782Z,88.99
2022-08-27T05:53:33.764Z,89.18
2022-08-27T05:54:33.755Z,89.49
2022-08-27T05:55:33.739Z,89.69
2022-08-27T05:56:33.733Z,89.39
2022-08-27T05:57:33.713Z,89.53
2022-08-27T05:58:33.705Z,89.18
2022-08-27T05:59:34.575Z,89.09
2022-08-27T06:00:33.676Z,89.39
2022-08-27T06:01:33.655Z,90.19
2022-08-27T06:02:33.697Z,89.49
2022-08-27T06:03:33.629Z,88.59
2022-08-27T06:04:33.634Z,88.54
2022-08-27T06:05:33.680Z,88.75
2022-08-27T06:06:33.601Z,88.48
2022-08-27T06:07:33.579Z,88.34
2022-08-27T06:08:33.571Z,88.84
2022-08-27T06:09:33.544Z,88.75
2022-08-27T06:10:33.541Z,88.95
2022-08-27T06:11:33.529Z,89.04
2022-08-27T06:12:33.516Z,89.14
2022-08-27T06:13:33.501Z,89.04
2022-08-27T06:14:33.485Z,89.14
2022-08-27T06:15:33.498Z,89.34
2022-08-27T06:16:33.458Z,89.25
2022-08-27T06:17:33.439Z,88.95
2022-08-27T06:18:33.426Z,88.84
2022-08-27T06:19:33.411Z,88.80
2022-08-27T06:20:33.403Z,88.44
2022-08-27T06:21:33.384Z,88.10
2022-08-27T06:22:33.374Z,87.70
2022-08-27T06:23:33.361Z,87.60
2022-08-27T06:24:33.352Z,88.20
2022-08-27T06:25:33.334Z,88.50
2022-08-27T06:26:33.329Z,88.60
2022-08-27T06:27:33.304Z,87.60
2022-08-27T06:28:33.296Z,88.40
2022-08-27T06:29:33.278Z,88.90
2022-08-27T06:30:33.265Z,89.00
2022-08-27T06:31:33.342Z,88.00
2022-08-27T06:32:33.246Z,88.90
2022-08-27T06:33:33.228Z,88.40
2022-08-27T06:34:33.218Z,88.40
2022-08-27T06:35:34.114Z,88.00
2022-08-27T06:36:33.187Z,88.30
2022-08-27T06:37:33.170Z,88.50
2022-08-27T06:38:33.160Z,88.50
2022-08-27T06:39:33.154Z,88.90
2022-08-27T06:40:33.234Z,89.36
2022-08-27T06:41:33.127Z,89.06
2022-08-27T06:42:33.114Z,88.96
2022-08-27T06:43:33.095Z,88.36
2022-08-27T06:44:33.083Z,87.96
2022-08-27T06:45:33.064Z,87.05
2022-08-27T06:46:33.202Z,87.05
2022-08-27T06:47:33.042Z,86.82
2022-08-27T06:48:33.034Z,86.71
2022-08-27T06:49:33.017Z,86.91
2022-08-27T06:50:33.006Z,86.11
2022-08-27T06:51:32.988Z,85.91
2022-08-27T06:52:32.984Z,85.41
2022-08-27T06:53:32.967Z,85.27
2022-08-27T06:54:32.955Z,84.91
2022-08-27T06:55:36.762Z,85.31
2022-08-27T06:56:32.924Z,85.71
2022-08-27T06:57:32.912Z,85.87
2022-08-27T06:58:32.898Z,86.11
2022-08-27T06:59:32.884Z,85.91
2022-08-27T07:00:32.872Z,85.47
2022-08-27T07:01:32.945Z,85.27
2022-08-27T07:02:32.896Z,85.17
2022-08-27T07:03:32.832Z,85.47
2022-08-27T07:04:33.003Z,84.67
2022-08-27T07:05:32.804Z,84.73
2022-08-27T07:06:32.799Z,84.23
2022-08-27T07:07:38.154Z,83.53
2022-08-27T07:08:33.789Z,83.93
2022-08-27T07:09:32.833Z,83.53
2022-08-27T07:10:32.740Z,84.17
2022-08-27T07:11:32.721Z,84.23
2022-08-27T07:12:32.710Z,83.63
2022-08-27T07:13:32.691Z,83.39
2022-08-27T07:14:37.142Z,83.49
2022-08-27T07:15:32.686Z,82.49
2022-08-27T07:16:32.664Z,82.59
2022-08-27T07:17:32.642Z,82.65
2022-08-27T07:18:32.629Z,82.65
2022-08-27T07:19:32.615Z,81.65
2022-08-27T07:20:32.606Z,81.75
2022-08-27T07:21:32.593Z,81.71
2022-08-27T07:22:32.580Z,81.51
2022-08-27T07:23:32.558Z,81.21
2022-08-27T07:24:32.546Z,80.82
2022-08-27T07:25:32.531Z,80.58
2022-08-27T07:26:32.527Z,79.88
2022-08-27T07:27:32.507Z,79.38
2022-08-27T07:28:32.499Z,79.78
2022-08-27T07:29:32.500Z,79.38
2022-08-27T07:30:32.504Z,79.48
2022-08-27T07:31:32.452Z,79.14
2022-08-27T07:32:32.441Z,79.04
2022-08-27T07:33:32.424Z,78.94
2022-08-27T07:34:32.415Z,78.24
2022-08-27T07:35:32.404Z,78.41
2022-08-27T07:36:32.399Z,77.97
2022-08-27T07:37:35.373Z,76.83
2022-08-27T07:38:32.370Z,76.60
2022-08-27T07:39:32.346Z,75.37
2022-08-27T07:40:32.390Z,74.33
2022-08-27T07:41:32.368Z,72.81
2022-08-27T07:42:32.308Z,72.61
2022-08-27T07:43:32.299Z,72.91
2022-08-27T07:44:34.452Z,72.44
2022-08-27T07:45:32.270Z,73.34
2022-08-27T07:46:33.041Z,74.17
2022-08-27T07:47:32.246Z,74.17
2022-08-27T07:48:32.237Z,74.47
2022-08-27T07:49:32.224Z,75.01
2022-08-27T07:50:32.216Z,74.80
2022-08-27T07:51:32.197Z,75.31
2022-08-27T07:52:32.179Z,74.21
2022-08-27T07:53:32.163Z,75.10
2022-08-27T07:54:32.152Z,75.10
2022-08-27T07:55:32.136Z,75.04
2022-08-27T07:56:32.132Z,75.74
2022-08-27T07:57:32.114Z,76.10
2022-08-27T07:58:32.101Z,75.31
2022-08-27T07:59:32.090Z,75.10
2022-08-27T08:00:32.086Z,75.04
2022-08-27T08:01:32.125Z,75.64
2022-08-27T08:02:32.111Z,76.14
2022-08-27T08:03:32.039Z,76.07
2022-08-27T08:04:32.029Z,76.67
2022-08-27T08:05:32.018Z,76.91
2022-08-27T08:06:32.003Z,76.91
2022-08-27T08:07:31.984Z,77.55
2022-08-27T08:08:31.973Z,78.74
2022-08-27T08:09:31.957Z,79.38
2022-08-27T08:10:35.386Z,79.88
2022-08-27T08:11:31.935Z,79.48
2022-08-27T08:12:31.922Z,79.68
2022-08-27T08:13:31.910Z,79.94
2022-08-27T08:14:31.893Z,79.17
2022-08-27T08:15:31.885Z,79.54
2022-08-27T08:16:32.002Z,79.54
2022-08-27T08:17:31.860Z,78.84
2022-08-27T08:18:31.848Z,78.64
2022-08-27T08:19:32.149Z,78.64
2022-08-27T08:20:56.729Z,78.60
2022-08-27T08:21:32.831Z,77.77
2022-08-27T08:22:31.797Z,77.57
2022-08-27T08:23:31.778Z,77.07
2022-08-27T08:24:31.760Z,77.53
2022-08-27T08:25:35.536Z,77.33
2022-08-27T08:26:32.757Z,77.27
2022-08-27T08:27:31.727Z,77.57
2022-08-27T08:28:31.707Z,77.87
2022-08-27T08:29:31.697Z,77.67
2022-08-27T08:30:35.258Z,77.57
2022-08-27T08:31:31.677Z,77.61
2022-08-27T08:32:31.658Z,78.74
2022-08-27T08:33:31.694Z,79.14
2022-08-27T08:34:31.635Z,79.44
2022-08-27T08:35:35.065Z,80.18
2022-08-27T08:36:32.633Z,80.21
2022-08-27T08:37:31.597Z,80.91
2022-08-27T08:38:31.586Z,81.12
2022-08-27T08:39:31.567Z,81.51
2022-08-27T08:40:31.598Z,81.75
2022-08-27T08:41:31.539Z,82.15
2022-08-27T08:42:31.520Z,82.55
2022-08-27T08:43:31.513Z,82.85
2022-08-27T08:44:31.507Z,82.65
2022-08-27T08:45:31.488Z,83.09
2022-08-27T08:46:31.544Z,83.49
2022-08-27T08:47:31.457Z,84.13
2022-08-27T08:48:31.446Z,84.53
2022-08-27T08:49:31.435Z,84.53
2022-08-27T08:50:31.421Z,84.29
2022-08-27T08:51:31.409Z,84.23
2022-08-27T08:52:32.044Z,83.69
2022-08-27T08:53:31.378Z,83.79
2022-08-27T08:54:31.362Z,83.89
2022-08-27T08:55:31.356Z,83.79
2022-08-27T08:56:31.342Z,83.65
2022-08-27T08:57:31.331Z,83.49
2022-08-27T08:58:31.318Z,83.29
2022-08-27T08:59:31.305Z,83.15
2022-08-27T09:00:31.289Z,83.15
2022-08-27T09:01:31.363Z,82.85
2022-08-27T09:02:31.267Z,82.75
2022-08-27T09:03:31.284Z,82.85
2022-08-27T09:04:31.234Z,82.85
2022-08-27T09:05:31.223Z,82.95
2022-08-27T09:06:31.206Z,82.55
2022-08-27T09:07:31.192Z,82.85
2022-08-27T09:08:36.484Z,82.75
2022-08-27T09:09:32.187Z,83.15
2022-08-27T09:10:31.151Z,83.35
2022-08-27T09:11:31.148Z,83.35
2022-08-27T09:12:31.128Z,83.05
2022-08-27T09:13:31.118Z,83.25
2022-08-27T09:14:31.101Z,84.15
2022-08-27T09:15:31.094Z,85.29
2022-08-27T09:16:31.197Z,86.09
2022-08-27T09:17:31.062Z,87.39
2022-08-27T09:18:31.044Z,88.64
2022-08-27T09:19:31.042Z,89.58
2022-08-27T09:20:31.021Z,89.98
2022-08-27T09:21:31.019Z,92.28
2022-08-27T09:22:30.993Z,92.22
2022-08-27T09:23:30.984Z,94.23
2022-08-27T09:24:30.972Z,94.02
2022-08-27T09:25:30.957Z,95.53
2022-08-27T09:26:30.947Z,94.12
2022-08-27T09:27:30.930Z,95.43
2022-08-27T09:28:30.914Z,96.73
2022-08-27T09:29:30.900Z,96.03
2022-08-27T09:30:31.169Z,97.47
2022-08-27T09:31:30.877Z,99.98
2022-08-27T09:32:30.859Z,99.99
2022-08-27T09:33:44.628Z,99.58
2022-08-27T09:34:31.857Z,99.99
2022-08-27T09:35:30.827Z,99.99
2022-08-27T09:36:30.809Z,99.99
2022-08-27T09:37:34.689Z,99.99
2022-08-27T09:38:30.780Z,99.99
2022-08-27T09:39:30.770Z,99.99
2022-08-27T09:40:30.831Z,99.99
2022-08-27T09:41:30.745Z,97.73
2022-08-27T09:42:30.730Z,98.88
2022-08-27T09:43:30.712Z,99.99
2022-08-27T09:44:30.700Z,99.99
2022-08-27T09:45:30.744Z,98.93
2022-08-27T09:46:30.671Z,99.23
2022-08-27T09:47:30.668Z,99.53
2022-08-27T09:48:30.649Z,99.99
2022-08-27T09:49:30.637Z,99.99
2022-08-27T09:50:30.623Z,99.99
2022-08-27T09:51:30.604Z,99.99
2022-08-27T09:52:30.588Z,99.99
2022-08-27T09:53:30.584Z,99.99
2022-08-27T09:54:30.564Z,98.88
2022-08-27T09:55:30.562Z,99.24
2022-08-27T09:56:30.533Z,97.68
2022-08-27T09:57:30.748Z,98.68
2022-08-27T09:58:30.511Z,99.18
2022-08-27T09:59:30.504Z,98.83
2022-08-27T10:00:30.484Z,99.74
2022-08-27T10:01:30.549Z,99.99
2022-08-27T10:02:30.459Z,99.99
2022-08-27T10:03:33.416Z,99.99
2022-08-27T10:04:30.531Z,98.94
2022-08-27T10:05:30.420Z,99.68
2022-08-27T10:06:30.413Z,99.38
2022-08-27T10:07:30.394Z,98.28
2022-08-27T10:08:30.374Z,98.79
2022-08-27T10:09:30.363Z,99.99
2022-08-27T10:10:30.362Z,99.99
2022-08-27T10:11:30.343Z,99.99
2022-08-27T10:12:30.319Z,99.99
2022-08-27T10:13:30.309Z,99.99
2022-08-27T10:14:30.292Z,99.99
2022-08-27T10:15:30.286Z,99.99
2022-08-27T10:16:31.385Z,99.99
2022-08-27T10:17:30.258Z,99.99
2022-08-27T10:18:30.244Z,99.99
2022-08-27T10:19:30.234Z,99.99
2022-08-27T10:20:30.946Z,99.99
2022-08-27T10:21:30.205Z,99.99
2022-08-27T10:22:30.188Z,99.99
2022-08-27T10:23:30.177Z,99.99
2022-08-27T10:24:30.154Z,99.99
2022-08-27T10:25:30.150Z,99.99
2022-08-27T10:26:33.680Z,99.99
2022-08-27T10:27:30.122Z,99.99
2022-08-27T10:28:30.109Z,99.99
2022-08-27T10:29:30.094Z,99.99
2022-08-27T10:30:30.078Z,99.99
2022-08-27T10:31:30.137Z,99.99
2022-08-27T10:32:30.051Z,99.99
2022-08-27T10:33:30.042Z,99.99
2022-08-27T10:34:30.020Z,99.99
2022-08-27T10:35:30.010Z,99.99
2022-08-27T10:36:29.993Z,99.99
2022-08-27T10:37:36.788Z,99.99
2022-08-27T10:38:31.001Z,99.99
2022-08-27T10:39:29.966Z,99.99
2022-08-27T10:40:30.000Z,99.99
2022-08-27T10:41:29.939Z,99.99
2022-08-27T10:42:29.919Z,99.99
2022-08-27T10:43:29.908Z,99.99
2022-08-27T10:44:29.888Z,99.99
2022-08-27T10:45:30.989Z,99.99
2022-08-27T10:46:29.898Z,99.99
2022-08-27T10:47:29.860Z,99.99
2022-08-27T10:48:29.844Z,99.99
2022-08-27T10:49:29.832Z,99.99
2022-08-27T10:50:29.814Z,99.99
2022-08-27T10:51:29.801Z,99.99
2022-08-27T10:52:29.784Z,99.99
2022-08-27T10:53:29.772Z,99.99
2022-08-27T10:54:29.761Z,99.99
2022-08-27T10:55:29.753Z,99.99
2022-08-27T10:56:29.733Z,99.99
2022-08-27T10:57:51.716Z,99.99
2022-08-27T10:58:30.736Z,99.99
2022-08-27T10:59:29.695Z,99.99
2022-08-27T11:00:29.681Z,99.99
2022-08-27T11:01:29.766Z,99.99
2022-08-27T11:02:29.731Z,99.99
2022-08-27T11:03:32.116Z,99.99
2022-08-27T11:04:29.623Z,99.99
2022-08-27T11:05:29.616Z,99.99
2022-08-27T11:06:29.637Z,99.99
2022-08-27T11:07:29.589Z,99.99
2022-08-27T11:08:29.572Z,99.99
2022-08-27T11:09:29.560Z,99.99
2022-08-27T11:10:29.544Z,99.99
2022-08-27T11:12:10.463Z,99.99
2022-08-27T11:12:30.540Z,99.99
2022-08-27T11:13:29.514Z,99.99
2022-08-27T11:14:29.496Z,99.99
2022-08-27T11:15:29.486Z,99.99
2022-08-27T11:16:29.545Z,99.99
2022-08-27T11:17:32.138Z,99.99
2022-08-27T11:18:29.438Z,99.99
2022-08-27T11:19:29.427Z,99.99
2022-08-27T11:20:29.408Z,99.99
2022-08-27T11:21:29.401Z,99.99
2022-08-27T11:22:29.389Z,99.99
2022-08-27T11:23:29.373Z,99.99
2022-08-27T11:24:34.376Z,99.99
2022-08-27T11:25:29.348Z,99.99
2022-08-27T11:26:29.332Z,99.99
2022-08-27T11:27:29.318Z,99.99
2022-08-27T11:28:30.035Z,99.99
2022-08-27T11:29:29.289Z,99.99
2022-08-27T11:30:29.276Z,99.99
2022-08-27T11:31:29.326Z,99.99
2022-08-27T11:32:29.256Z,99.99
2022-08-27T11:33:29.240Z,99.99
2022-08-27T11:34:29.224Z,99.99
2022-08-27T11:35:29.213Z,99.99
2022-08-27T11:36:29.193Z,99.99
2022-08-27T11:37:29.187Z,99.99
2022-08-27T11:38:29.168Z,99.99
2022-08-27T11:39:29.156Z,99.99
2022-08-27T11:40:29.230Z,99.99
2022-08-27T11:41:29.130Z,99.99
2022-08-27T11:42:29.116Z,99.99
2022-08-27T11:43:29.117Z,99.99
2022-08-27T11:44:29.089Z,99.99
2022-08-27T11:45:29.084Z,99.99
2022-08-27T11:46:29.166Z,99.99
2022-08-27T11:47:29.050Z,99.99
2022-08-27T11:48:29.032Z,99.99
2022-08-27T11:49:29.019Z,99.99
2022-08-27T11:50:29.007Z,99.99
2022-08-27T11:51:29.000Z,99.99
2022-08-27T11:52:29.421Z,99.99
2022-08-27T11:53:28.978Z,99.99
2022-08-27T11:54:28.956Z,99.99
2022-08-27T11:55:28.943Z,99.99
2022-08-27T11:56:28.931Z,99.99
2022-08-27T11:57:28.921Z,99.99
2022-08-27T11:58:28.905Z,99.99
2022-08-27T11:59:28.886Z,99.99
2022-08-27T12:00:28.868Z,99.99
2022-08-27T12:01:28.860Z,99.99
2022-08-27T12:02:28.848Z,99.99
2022-08-27T12:03:28.874Z,99.99
2022-08-27T12:04:28.851Z,99.99
2022-08-27T12:05:28.806Z,99.99
2022-08-27T12:06:28.792Z,99.99
2022-08-27T12:07:28.780Z,99.99
2022-08-27T12:08:28.765Z,99.99
2022-08-27T12:09:28.754Z,99.99
2022-08-27T12:10:28.740Z,99.99
2022-08-27T12:11:28.731Z,99.99
2022-08-27T12:12:28.720Z,99.99
2022-08-27T12:13:28.708Z,99.99
2022-08-27T12:14:28.689Z,99.99
2022-08-27T12:15:34.477Z,99.99
2022-08-27T12:16:29.910Z,99.99
2022-08-27T12:17:28.643Z,99.99
2022-08-27T12:18:28.633Z,99.99
2022-08-27T12:19:28.618Z,99.99
2022-08-27T12:20:28.601Z,99.99
2022-08-27T12:21:28.595Z,99.99
2022-08-27T12:22:28.572Z,99.99
2022-08-27T12:23:28.566Z,99.99
2022-08-27T12:24:28.550Z,99.99
2022-08-27T12:25:28.542Z,99.99
2022-08-27T12:26:28.523Z,99.99
2022-08-27T12:27:28.520Z,99.99
2022-08-27T12:28:28.498Z,99.99
2022-08-27T12:29:28.485Z,99.99
2022-08-27T12:30:28.473Z,99.99
2022-08-27T12:31:28.489Z,99.99
2022-08-27T12:32:28.444Z,99.99
2022-08-27T12:33:28.423Z,99.99
2022-08-27T12:34:28.413Z,99.99
2022-08-27T12:35:28.402Z,99.99
2022-08-27T12:36:28.672Z,99.99
2022-08-27T12:37:28.372Z,99.99
2022-08-27T12:38:28.362Z,99.99
2022-08-27T12:39:28.347Z,99.99
2022-08-27T12:40:28.449Z,99.99
2022-08-27T12:41:28.323Z,99.99
2022-08-27T12:42:28.306Z,99.99
2022-08-27T12:43:28.300Z,99.99
2022-08-27T12:44:28.282Z,99.99
2022-08-27T12:45:28.268Z,99.99
2022-08-27T12:46:28.273Z,99.99
2022-08-27T12:47:28.234Z,99.99
2022-08-27T12:48:28.222Z,99.99
2022-08-27T12:49:38.404Z,99.99
2022-08-27T12:50:29.223Z,99.99
2022-08-27T12:51:28.183Z,99.99
2022-08-27T12:52:28.171Z,99.99